Pontoon, Arkansas
Current Conditions -  °F | °C
As of 12:53 PM on Thursday 30 Oct 2014 (Local Time) from KRUE Reporting Station
Clear Clear  
Wind Chill: 68°   Ceiling: Unl
Heat Index: 68°   Visibility: 10mi
Dew Point: 47°   Wind: 0mph
Humidity: 47%   Direction: NA
Pressure: 30.1"   Gusts: NA
Location:  35.031°N, 93.0373°W
Report Text: KRUE 301753Z AUTO 00000KT 10SM CLR 20/08 A3010 RMK AO2 SLP189 T02000083 10200 20050 58020
Loading
Personal Weather Stations






























Interactive Weather Map New forecast layout! Learn more

10-Day Weather Forecast

Advertisements
Track Severe Weather on mobile